Beckley, WV

9:43 AM EDT on October 24, 2014 (GMT -0400)
Southeast Beckley | Change Station
CLOSE
Current Station
Personal Weather Station
Location: Beckley, WV
Elevation: 2365 ft
Nearby Weather Stations

Elev 2365 ft 37.76 °N, 81.16 °W | Updated 2 seconds ago

Partly Cloudy
Partly Cloudy
38.3 °F
Feels Like 38 °F
N
0.0
Wind Variable Wind from SSW
Gusts 0.0 mph

Today
High -- | Low -- °F
--% Chance of Precip.
Yesterday
High -- | Low -- °F
Precip. -- in
7:42 AM 6:35 PM
New Moon, 0% visible
Pressure 30.14 in
Visibility 4.0 miles
Clouds Clear
Windchill 38 °F
Dew Point 37 °F
Humidity 96%
Rainfall 0.00 in
Snow Depth Not available.
UV 1 out of 12
Pollen .70 out of 12
Air Quality Not available.
Flu Activity Sporadic
METAR KBKW 241251Z AUTO 00000KT 4SM BR CLR 05/03 A3011 RMK AO2 SLP206 T00500033 TSNO

More Conditions Fewer Conditions

Pressure 30.14 in
Visibility 4.0 miles
Clouds Clear
Windchill 38 °F
Dew Point 37 °F
Humidity 96%
Rainfall 0.00 in
Snow Depth Not available.
UV 1 out of 12
Pollen .70 out of 12
Air Quality Not available.
Flu Activity Sporadic
METAR KBKW 241251Z AUTO 00000KT 4SM BR CLR 05/03 A3011 RMK AO2 SLP206 T00500033 TSNO

More Conditions Fewer Conditions

10-Day Weather Forecast

Almanac

Astronomy

Oct. 24, 2014 Rise Set
Actual Time 7:42 AM EDT 6:35 PM EDT
Civil Twilight 7:15 AM EDT 7:02 PM EDT
Nautical Twilight 6:44 AM EDT 7:32 PM EDT
Astronomical Twilight 6:14 AM EDT 8:03 PM EDT
Moon 8:19 AM EDT 7:15 PM EDT
Length of Visible Light 11h 47m
Length of Day
10h 53m
Tomorrow will be 2m 15s shorter.
New Moon, 0% of the Moon is Illuminated
Today
New Moon
Oct 30
First Quarter
Nov 6
Full
Nov 14
Last Quarter
Nov 22
New

Today's Extremes

State Highs State Lows

Community

WunderPhotos

Upload Photos

1,764,551 photos uploaded!

WunderBlogs® & News

Nearby

Snow Depth

Station Depth Elevation
No new snow has been reported.

Earthquake Activity

City Distance Mag. Time & Date
No recent earthquake activity has been reported nearby.
Minimum magnitude displayed is 2.5.

Coastal Water Temperatures

Place Temperature
No Stations Reporting

Nearby Weather Stations